createdAt,value
2022-10-30T00:00:44.338Z,98316.63
2022-10-30T00:03:13.154Z,98307.88
2022-10-30T00:05:44.086Z,98310.56
2022-10-30T00:08:13.290Z,98315.84
2022-10-30T00:10:40.653Z,98301.13
2022-10-30T00:13:08.089Z,98300.44
2022-10-30T00:15:34.811Z,98308.38
2022-10-30T00:18:02.379Z,98299.59
2022-10-30T00:20:29.043Z,98293.53
2022-10-30T00:22:57.518Z,98290.19
2022-10-30T00:25:24.386Z,98290.06
2022-10-30T00:27:51.005Z,98286.81
2022-10-30T00:30:18.967Z,98285.09
2022-10-30T00:32:45.619Z,98278.16
2022-10-30T00:35:15.546Z,98279.03
2022-10-30T00:37:42.149Z,98275.50
2022-10-30T00:40:15.057Z,98272.00
2022-10-30T00:42:41.961Z,98270.19
2022-10-30T00:45:12.524Z,98265.88
2022-10-30T00:47:43.800Z,98264.16
2022-10-30T00:53:02.012Z,98271.13
2022-10-30T00:56:08.888Z,98271.25
2022-10-30T00:58:47.321Z,98277.41
2022-10-30T01:01:19.913Z,98279.22
2022-10-30T01:03:51.813Z,98275.72
2022-10-30T01:06:18.859Z,98274.69
2022-10-30T01:08:46.598Z,98265.88
2022-10-30T01:11:15.252Z,98260.47
2022-10-30T01:13:45.114Z,98255.25
2022-10-30T01:16:32.128Z,98263.88
2022-10-30T01:19:07.625Z,98261.16
2022-10-30T01:21:50.317Z,98262.97
2022-10-30T01:24:35.124Z,98263.88
2022-10-30T01:27:31.040Z,98266.50
2022-10-30T01:30:11.185Z,98264.88
2022-10-30T01:32:52.998Z,98248.16
2022-10-30T01:35:19.578Z,98254.19
2022-10-30T01:37:58.095Z,98250.78
2022-10-30T01:40:24.984Z,98243.00
2022-10-30T01:42:52.800Z,98245.53
2022-10-30T01:45:25.283Z,98242.91
2022-10-30T01:48:10.595Z,98243.81
2022-10-30T01:51:11.044Z,98231.56
2022-10-30T01:53:50.881Z,98240.38
2022-10-30T01:56:29.893Z,98240.41
2022-10-30T01:59:07.326Z,98239.59
2022-10-30T02:01:35.806Z,98239.44
2022-10-30T02:06:36.480Z,98231.38
2022-10-30T02:09:03.972Z,98233.22
2022-10-30T02:11:33.071Z,98233.38
2022-10-30T02:14:03.423Z,98235.09
2022-10-30T02:16:30.817Z,98236.78
2022-10-30T02:18:57.494Z,98238.56
2022-10-30T02:21:24.122Z,98230.69
2022-10-30T02:23:50.787Z,98224.84
2022-10-30T02:26:17.475Z,98224.97
2022-10-30T02:28:44.202Z,98220.41
2022-10-30T02:31:11.032Z,98222.97
2022-10-30T02:33:37.693Z,98216.81
2022-10-30T02:36:04.643Z,98213.44
2022-10-30T02:38:31.571Z,98209.97
2022-10-30T02:40:58.914Z,98209.88
2022-10-30T02:43:25.926Z,98209.19
2022-10-30T02:45:52.881Z,98218.78
2022-10-30T02:48:19.540Z,98213.44
2022-10-30T02:50:46.164Z,98221.25
2022-10-30T02:53:12.832Z,98218.63
2022-10-30T02:55:39.618Z,98224.91
2022-10-30T02:58:06.350Z,98227.53
2022-10-30T03:00:33.030Z,98218.91
2022-10-30T03:02:59.687Z,98223.41
2022-10-30T03:05:26.348Z,98226.00
2022-10-30T03:07:55.284Z,98223.28
2022-10-30T03:10:22.061Z,98225.06
2022-10-30T03:12:51.537Z,98226.75
2022-10-30T03:15:18.583Z,98233.03
2022-10-30T03:17:47.443Z,98235.59
2022-10-30T03:20:14.216Z,98227.78
2022-10-30T03:22:40.826Z,98230.41
2022-10-30T03:25:07.739Z,98223.31
2022-10-30T03:27:34.412Z,98220.78
2022-10-30T03:30:01.139Z,98217.34
2022-10-30T03:32:27.807Z,98223.44
2022-10-30T03:34:54.455Z,98216.53
2022-10-30T03:37:21.062Z,98218.22
2022-10-30T03:39:47.774Z,98215.50
2022-10-30T03:42:14.421Z,98216.34
2022-10-30T03:44:41.009Z,98214.72
2022-10-30T03:47:07.681Z,98209.53
2022-10-30T03:49:34.422Z,98199.81
2022-10-30T03:52:01.009Z,98205.84
2022-10-30T03:54:27.619Z,98196.28
2022-10-30T03:56:54.252Z,98207.66
2022-10-30T03:59:20.925Z,98205.06
2022-10-30T04:01:50.184Z,98202.44
2022-10-30T04:04:16.989Z,98205.91
2022-10-30T04:06:43.640Z,98208.56
2022-10-30T04:09:12.808Z,98202.53
2022-10-30T04:11:42.244Z,98199.09
2022-10-30T04:14:08.896Z,98206.09
2022-10-30T04:16:35.526Z,98206.09
2022-10-30T04:19:02.164Z,98213.91
2022-10-30T04:21:31.272Z,98211.16
2022-10-30T04:23:58.549Z,98213.81
2022-10-30T04:26:25.194Z,98209.44
2022-10-30T04:28:51.823Z,98207.66
2022-10-30T04:31:18.428Z,98201.56
2022-10-30T04:33:45.029Z,98195.38
2022-10-30T04:36:11.667Z,98197.00
2022-10-30T04:38:38.229Z,98196.13
2022-10-30T04:41:05.023Z,98197.91
2022-10-30T04:43:31.556Z,98197.91
2022-10-30T04:45:58.266Z,98190.75
2022-10-30T04:48:27.269Z,98188.06
2022-10-30T04:50:54.056Z,98191.50
2022-10-30T04:53:21.235Z,98187.28
2022-10-30T04:55:47.863Z,98184.78
2022-10-30T04:58:14.536Z,98185.59
2022-10-30T05:00:41.591Z,98197.81
2022-10-30T05:03:20.342Z,98205.72
2022-10-30T05:05:48.735Z,98197.75
2022-10-30T05:08:15.472Z,98188.22
2022-10-30T05:10:42.166Z,98188.19
2022-10-30T05:13:11.860Z,98187.22
2022-10-30T05:15:43.532Z,98187.16
2022-10-30T05:18:10.577Z,98183.69
2022-10-30T05:20:37.314Z,98192.47
2022-10-30T05:23:04.513Z,98191.47
2022-10-30T05:25:31.165Z,98188.84
2022-10-30T05:28:05.770Z,98198.31
2022-10-30T05:30:34.409Z,98197.44
2022-10-30T05:33:03.423Z,98195.78
2022-10-30T05:35:32.868Z,98200.06
2022-10-30T05:38:02.401Z,98182.53
2022-10-30T05:40:29.239Z,98185.25
2022-10-30T05:42:56.223Z,98183.44
2022-10-30T05:45:23.442Z,98179.84
2022-10-30T05:48:03.146Z,98178.88
2022-10-30T05:50:30.892Z,98182.25
2022-10-30T05:52:58.780Z,98182.25
2022-10-30T05:55:26.196Z,98189.25
2022-10-30T05:58:01.841Z,98187.50
2022-10-30T06:00:30.527Z,98187.50
2022-10-30T06:03:02.160Z,98202.31
2022-10-30T06:05:36.889Z,98211.91
2022-10-30T06:08:07.766Z,98208.34
2022-10-30T06:10:34.919Z,98215.47
2022-10-30T06:13:03.635Z,98218.97
2022-10-30T06:15:30.800Z,98215.28
2022-10-30T06:17:58.585Z,98228.41
2022-10-30T06:20:28.883Z,98224.75
2022-10-30T06:23:02.236Z,98228.25
2022-10-30T06:25:34.112Z,98229.97
2022-10-30T06:28:08.349Z,98223.78
2022-10-30T06:30:38.029Z,98226.47
2022-10-30T06:33:08.028Z,98220.25
2022-10-30T06:35:37.433Z,98219.19
2022-10-30T06:38:05.126Z,98219.94
2022-10-30T06:40:31.947Z,98212.03
2022-10-30T06:42:59.307Z,98203.94
2022-10-30T06:45:26.470Z,98200.31
2022-10-30T06:47:55.253Z,98208.22
2022-10-30T06:50:24.253Z,98219.69
2022-10-30T06:52:51.290Z,98213.59
2022-10-30T06:55:18.122Z,98215.41
2022-10-30T06:57:46.991Z,98223.13
2022-10-30T07:00:14.001Z,98217.81
2022-10-30T07:02:40.662Z,98215.06
2022-10-30T07:05:07.573Z,98211.34
2022-10-30T07:07:37.133Z,98212.09
2022-10-30T07:10:03.896Z,98200.59
2022-10-30T07:12:31.771Z,98201.38
2022-10-30T07:14:58.441Z,98201.16
2022-10-30T07:17:28.008Z,98193.28
2022-10-30T07:19:54.815Z,98194.03
2022-10-30T07:22:21.739Z,98195.56
2022-10-30T07:24:50.451Z,98200.69
2022-10-30T07:27:17.132Z,98199.72
2022-10-30T07:29:43.756Z,98194.22
2022-10-30T07:32:13.583Z,98191.41
2022-10-30T07:34:40.353Z,98192.91
2022-10-30T07:37:07.187Z,98186.72
2022-10-30T07:39:33.943Z,98187.22
2022-10-30T07:42:00.576Z,98185.38
2022-10-30T07:44:30.825Z,98182.59
2022-10-30T07:46:57.655Z,98184.31
2022-10-30T07:49:24.585Z,98180.81
2022-10-30T07:51:57.346Z,98172.72
2022-10-30T07:54:25.417Z,98187.28
2022-10-30T07:56:52.146Z,98180.00
2022-10-30T07:59:18.903Z,98170.25
2022-10-30T08:01:45.674Z,98171.88
2022-10-30T08:04:14.084Z,98167.91
2022-10-30T08:06:40.917Z,98154.38
2022-10-30T08:09:11.115Z,98156.97
2022-10-30T08:11:37.872Z,98158.53
2022-10-30T08:14:04.589Z,98156.59
2022-10-30T08:16:31.257Z,98138.94
2022-10-30T08:18:57.895Z,98142.06
2022-10-30T08:21:27.122Z,98138.31
2022-10-30T08:23:59.301Z,98154.41
2022-10-30T08:26:29.182Z,98159.75
2022-10-30T08:28:56.169Z,98159.03
2022-10-30T08:31:22.858Z,98160.59
2022-10-30T08:33:49.458Z,98164.06
2022-10-30T08:36:16.157Z,98169.34
2022-10-30T08:38:42.750Z,98163.91
2022-10-30T08:41:09.680Z,98160.22
2022-10-30T08:43:36.239Z,98145.78
2022-10-30T08:46:03.026Z,98146.69
2022-10-30T08:48:30.933Z,98146.19
2022-10-30T08:51:03.649Z,98141.03
2022-10-30T08:53:30.387Z,98124.00
2022-10-30T08:56:00.972Z,98116.53
2022-10-30T08:58:27.957Z,98116.31
2022-10-30T09:01:01.448Z,98125.34
2022-10-30T09:03:35.899Z,98113.81
2022-10-30T09:06:14.113Z,98116.97
2022-10-30T09:08:48.845Z,98114.94
2022-10-30T09:11:21.384Z,98118.09
2022-10-30T09:13:53.421Z,98105.28
2022-10-30T09:16:21.323Z,98105.22
2022-10-30T09:18:48.035Z,98113.50
2022-10-30T09:21:16.255Z,98112.13
2022-10-30T09:23:44.172Z,98113.13
2022-10-30T09:26:16.920Z,98116.88
2022-10-30T09:28:52.573Z,98120.50
2022-10-30T09:31:19.151Z,98126.44
2022-10-30T09:33:51.851Z,98128.19
2022-10-30T09:36:26.096Z,98128.06
2022-10-30T09:38:56.175Z,98132.28
2022-10-30T09:42:04.002Z,98128.75
2022-10-30T09:45:08.173Z,98123.34
2022-10-30T09:48:15.773Z,98128.66
2022-10-30T09:51:14.616Z,98132.38
2022-10-30T09:54:22.095Z,98117.22
2022-10-30T09:57:04.180Z,98116.03
2022-10-30T09:59:50.376Z,98106.00
2022-10-30T10:02:29.608Z,98095.19
2022-10-30T10:05:19.716Z,98089.84
2022-10-30T10:08:01.415Z,98089.97
2022-10-30T10:10:46.469Z,98080.94
2022-10-30T10:13:27.002Z,98080.25
2022-10-30T10:16:20.521Z,98074.66
2022-10-30T10:18:51.569Z,98066.16
2022-10-30T10:21:43.505Z,98061.19
2022-10-30T10:24:24.001Z,98058.91
2022-10-30T10:27:00.750Z,98062.66
2022-10-30T10:29:42.874Z,98068.22
2022-10-30T10:32:39.812Z,98067.34
2022-10-30T10:35:24.846Z,98071.44
2022-10-30T10:38:30.591Z,98086.50
2022-10-30T10:41:05.234Z,98085.28
2022-10-30T10:43:44.672Z,98077.31
2022-10-30T10:46:45.240Z,98067.97
2022-10-30T10:49:20.989Z,98066.66
2022-10-30T10:52:05.652Z,98070.63
2022-10-30T10:54:44.199Z,98068.81
2022-10-30T10:57:27.722Z,98058.59
2022-10-30T11:00:03.610Z,98040.53
2022-10-30T11:02:33.149Z,98043.19
2022-10-30T11:05:04.282Z,98046.94
2022-10-30T11:07:32.381Z,98038.81
2022-10-30T11:10:01.437Z,98047.81
2022-10-30T11:12:35.391Z,98046.25
2022-10-30T11:15:18.703Z,98037.03
2022-10-30T11:17:59.856Z,98034.28
2022-10-30T11:20:31.364Z,98030.59
2022-10-30T11:22:58.169Z,98032.63
2022-10-30T11:25:30.176Z,98032.53
2022-10-30T11:27:59.359Z,98026.56
2022-10-30T11:30:30.995Z,98017.91
2022-10-30T11:33:00.215Z,98013.56
2022-10-30T11:35:28.511Z,98013.75
2022-10-30T11:38:34.750Z,98019.44
2022-10-30T11:41:02.018Z,98016.63
2022-10-30T11:43:29.366Z,98014.53
2022-10-30T11:45:56.240Z,98015.91
2022-10-30T11:48:27.257Z,98010.34
2022-10-30T11:50:58.109Z,98004.91
2022-10-30T11:53:50.998Z,97997.56
2022-10-30T11:56:21.974Z,97995.06
2022-10-30T11:58:51.022Z,97995.66
2022-10-30T12:01:21.666Z,97984.22
2022-10-30T12:03:48.470Z,97990.31
2022-10-30T12:06:24.872Z,97979.66
2022-10-30T12:09:24.301Z,97981.50
2022-10-30T12:11:53.322Z,97983.75
2022-10-30T12:14:24.912Z,97974.72
2022-10-30T12:16:58.309Z,97973.78
2022-10-30T12:19:25.802Z,97982.44
2022-10-30T12:21:54.063Z,97980.78
2022-10-30T12:24:31.887Z,97973.97
2022-10-30T12:27:02.164Z,97969.81
2022-10-30T12:30:07.300Z,97969.69
2022-10-30T12:32:39.568Z,97970.97
2022-10-30T12:35:15.181Z,97970.56
2022-10-30T12:37:44.209Z,97964.47
2022-10-30T12:40:36.584Z,97974.19
2022-10-30T12:43:13.353Z,97963.94
2022-10-30T12:45:43.523Z,97966.97
2022-10-30T12:48:13.244Z,97964.81
2022-10-30T12:50:52.503Z,97964.13
2022-10-30T12:53:24.775Z,97960.59
2022-10-30T12:55:55.450Z,97963.53
2022-10-30T12:58:26.668Z,97956.28
2022-10-30T13:01:00.616Z,97960.06
2022-10-30T13:03:27.414Z,97954.81
2022-10-30T13:05:55.816Z,97960.06
2022-10-30T13:08:28.575Z,97953.69
2022-10-30T13:11:07.774Z,97956.34
2022-10-30T13:13:39.499Z,97956.13
2022-10-30T13:16:27.054Z,97952.47
2022-10-30T13:18:58.829Z,97954.50
2022-10-30T13:21:37.639Z,97952.03
2022-10-30T13:24:13.490Z,97952.50
2022-10-30T13:26:44.909Z,97957.34
2022-10-30T13:29:14.557Z,97950.69
2022-10-30T13:32:16.451Z,97949.16
2022-10-30T13:34:48.708Z,97953.66
2022-10-30T13:37:35.580Z,97948.41
2022-10-30T13:40:12.061Z,97944.31
2022-10-30T13:42:59.062Z,97957.53
2022-10-30T13:45:25.528Z,97954.88
2022-10-30T13:47:59.052Z,97950.84
2022-10-30T13:50:36.064Z,97953.31
2022-10-30T13:53:13.980Z,97945.88
2022-10-30T13:55:42.226Z,97948.72
2022-10-30T13:58:28.471Z,97955.75
2022-10-30T14:01:11.700Z,97962.47
2022-10-30T14:04:03.186Z,97955.69
2022-10-30T14:06:41.117Z,97954.09
2022-10-30T14:09:25.457Z,97951.69
2022-10-30T14:11:55.335Z,97952.31
2022-10-30T14:14:21.875Z,97961.47
2022-10-30T14:17:08.747Z,97962.84
2022-10-30T14:19:57.806Z,97963.94
2022-10-30T14:22:29.196Z,97960.13
2022-10-30T14:24:56.286Z,97967.31
2022-10-30T14:27:27.682Z,97976.94
2022-10-30T14:29:54.477Z,97978.34
2022-10-30T14:32:25.918Z,97984.25
2022-10-30T14:34:55.501Z,97988.88
2022-10-30T14:37:27.901Z,97987.34
2022-10-30T14:39:55.221Z,97982.09
2022-10-30T14:42:40.475Z,97976.09
2022-10-30T14:45:19.501Z,97976.69
2022-10-30T14:47:59.630Z,97979.44
2022-10-30T14:50:26.048Z,97975.91
2022-10-30T14:53:03.012Z,97979.53
2022-10-30T14:55:29.652Z,97976.44
2022-10-30T14:58:02.363Z,97966.72
2022-10-30T15:00:44.715Z,97970.19
2022-10-30T15:03:20.206Z,97967.69
2022-10-30T15:05:54.872Z,97963.72
2022-10-30T15:08:27.219Z,97956.47
2022-10-30T15:11:17.715Z,97950.72
2022-10-30T15:13:47.390Z,97951.13
2022-10-30T15:16:17.133Z,97940.00
2022-10-30T15:18:56.145Z,97944.56
2022-10-30T15:21:25.532Z,97957.31
2022-10-30T15:23:54.907Z,97966.72
2022-10-30T15:26:23.113Z,97973.00
2022-10-30T15:28:50.557Z,97979.59
2022-10-30T15:31:24.428Z,97988.16
2022-10-30T15:33:51.436Z,97997.63
2022-10-30T15:36:21.269Z,97987.78
2022-10-30T15:39:04.044Z,97976.47
2022-10-30T15:41:31.124Z,97975.53
2022-10-30T15:43:59.052Z,97981.41
2022-10-30T15:46:25.618Z,97985.88
2022-10-30T15:48:52.126Z,97984.31
2022-10-30T15:51:23.406Z,97989.63
2022-10-30T15:53:51.517Z,97983.53
2022-10-30T15:56:26.932Z,97993.84
2022-10-30T15:58:56.233Z,97995.63
2022-10-30T16:01:27.464Z,97995.16
2022-10-30T16:03:54.529Z,97997.97
2022-10-30T16:06:23.544Z,97999.56
2022-10-30T16:08:50.041Z,97999.72
2022-10-30T16:11:17.111Z,98010.75
2022-10-30T16:13:43.926Z,98021.13
2022-10-30T16:16:16.847Z,98023.38
2022-10-30T16:18:44.070Z,98018.94
2022-10-30T16:21:13.905Z,98025.03
2022-10-30T16:23:41.857Z,98023.31
2022-10-30T16:26:23.831Z,98021.38
2022-10-30T16:28:50.419Z,98019.72
2022-10-30T16:31:20.205Z,98015.34
2022-10-30T16:33:47.681Z,98019.25
2022-10-30T16:36:16.943Z,98022.94
2022-10-30T16:38:46.687Z,98013.22
2022-10-30T16:41:14.062Z,98016.81
2022-10-30T16:43:42.129Z,98017.69
2022-10-30T16:46:15.132Z,98021.97
2022-10-30T16:48:46.842Z,98024.88
2022-10-30T16:51:15.452Z,98010.81
2022-10-30T16:53:47.423Z,98002.31
2022-10-30T16:56:34.289Z,98010.47
2022-10-30T16:59:13.313Z,98011.34
2022-10-30T17:01:40.181Z,98030.66
2022-10-30T17:04:06.933Z,98031.50
2022-10-30T17:06:40.614Z,98022.81
2022-10-30T17:09:19.736Z,98019.53
2022-10-30T17:11:48.102Z,98019.00
2022-10-30T17:14:19.435Z,98028.09
2022-10-30T17:16:53.699Z,98030.84
2022-10-30T17:19:32.278Z,98026.41
2022-10-30T17:22:00.481Z,98033.50
2022-10-30T17:24:34.538Z,98020.16
2022-10-30T17:27:02.867Z,98018.50
2022-10-30T17:29:38.441Z,98029.41
2022-10-30T17:32:05.719Z,98027.00
2022-10-30T17:34:37.390Z,98030.59
2022-10-30T17:37:03.980Z,98031.34
2022-10-30T17:39:30.801Z,98034.88
2022-10-30T17:42:09.588Z,98022.91
2022-10-30T17:44:36.209Z,98035.72
2022-10-30T17:47:13.980Z,98039.28
2022-10-30T17:49:43.270Z,98041.63
2022-10-30T17:52:13.659Z,98039.06
2022-10-30T17:54:41.187Z,98034.53
2022-10-30T17:57:09.823Z,98039.41
2022-10-30T17:59:36.314Z,98047.53
2022-10-30T18:02:03.132Z,98045.44
2022-10-30T18:04:29.690Z,98043.16
2022-10-30T18:06:56.439Z,98049.53
2022-10-30T18:09:23.011Z,98046.91
2022-10-30T18:11:49.546Z,98051.50
2022-10-30T18:14:16.195Z,98052.34
2022-10-30T18:16:42.724Z,98056.69
2022-10-30T18:19:10.260Z,98049.53
2022-10-30T18:21:37.374Z,98055.38
2022-10-30T18:24:09.435Z,98058.56
2022-10-30T18:26:40.167Z,98057.28
2022-10-30T18:29:07.630Z,98058.31
2022-10-30T18:31:34.185Z,98055.56
2022-10-30T18:34:00.729Z,98054.00
2022-10-30T18:36:27.572Z,98053.19
2022-10-30T18:38:54.803Z,98055.00
2022-10-30T18:41:35.507Z,98055.84
2022-10-30T18:44:02.259Z,98053.91
2022-10-30T18:46:30.507Z,98047.13
2022-10-30T18:48:57.430Z,98040.03
2022-10-30T18:51:26.578Z,98031.34
2022-10-30T18:53:55.707Z,98028.28
2022-10-30T18:56:27.640Z,98025.03
2022-10-30T18:59:00.778Z,98035.72
2022-10-30T19:01:31.502Z,98038.09
2022-10-30T19:04:01.204Z,98043.03
2022-10-30T19:06:28.339Z,98033.00
2022-10-30T19:08:55.058Z,98048.81
2022-10-30T19:11:24.903Z,98047.97
2022-10-30T19:13:53.072Z,98044.34
2022-10-30T19:16:20.943Z,98047.56
2022-10-30T19:18:48.671Z,98044.25
2022-10-30T19:21:21.527Z,98046.25
2022-10-30T19:23:48.163Z,98047.19
2022-10-30T19:26:16.267Z,98063.09
2022-10-30T19:28:44.076Z,98061.19
2022-10-30T19:31:15.893Z,98055.88
2022-10-30T19:33:42.946Z,98055.59
2022-10-30T19:36:37.488Z,98048.41
2022-10-30T19:39:13.220Z,98052.19
2022-10-30T19:41:41.265Z,98059.38
2022-10-30T19:44:08.035Z,98056.94
2022-10-30T19:46:36.529Z,98056.88
2022-10-30T19:49:19.992Z,98064.00
2022-10-30T19:51:47.073Z,98065.75
2022-10-30T19:54:13.712Z,98060.47
2022-10-30T19:56:43.112Z,98054.31
2022-10-30T19:59:11.838Z,98052.69
2022-10-30T20:01:38.648Z,98055.16
2022-10-30T20:04:05.388Z,98060.66
2022-10-30T20:06:32.033Z,98063.31
2022-10-30T20:09:00.538Z,98065.91
2022-10-30T20:11:27.753Z,98058.94
2022-10-30T20:13:54.829Z,98053.00
2022-10-30T20:16:21.514Z,98054.06
2022-10-30T20:18:48.660Z,98058.06
2022-10-30T20:21:15.522Z,98051.13
2022-10-30T20:23:42.164Z,98056.47
2022-10-30T20:26:28.536Z,98061.00
2022-10-30T20:28:55.774Z,98055.91
2022-10-30T20:31:22.487Z,98058.50
2022-10-30T20:33:51.687Z,98049.13
2022-10-30T20:36:18.379Z,98058.19
2022-10-30T20:38:44.983Z,98052.28
2022-10-30T20:41:23.654Z,98061.47
2022-10-30T20:43:50.945Z,98074.69
2022-10-30T20:46:18.399Z,98067.03
2022-10-30T20:48:45.013Z,98073.47
2022-10-30T20:51:15.071Z,98073.59
2022-10-30T20:53:41.622Z,98081.28
2022-10-30T20:56:08.268Z,98076.31
2022-10-30T20:58:34.918Z,98079.06
2022-10-30T21:01:01.692Z,98081.13
2022-10-30T21:03:28.351Z,98079.81
2022-10-30T21:06:00.180Z,98089.69
2022-10-30T21:08:28.762Z,98087.03
2022-10-30T21:11:03.519Z,98088.44
2022-10-30T21:13:30.680Z,98097.97
2022-10-30T21:16:02.471Z,98096.91
2022-10-30T21:18:29.267Z,98103.78
2022-10-30T21:21:03.634Z,98100.13
2022-10-30T21:23:30.249Z,98099.19
2022-10-30T21:26:04.830Z,98095.81
2022-10-30T21:28:31.615Z,98094.28
2022-10-30T21:31:02.985Z,98086.53
2022-10-30T21:33:31.318Z,98094.56
2022-10-30T21:35:57.925Z,98092.69
2022-10-30T21:38:24.626Z,98088.94
2022-10-30T21:40:56.018Z,98089.34
2022-10-30T21:43:22.772Z,98084.03
2022-10-30T21:45:49.501Z,98082.25
2022-10-30T21:48:16.505Z,98089.22
2022-10-30T21:50:43.589Z,98090.00
2022-10-30T21:53:10.244Z,98091.78
2022-10-30T21:55:40.481Z,98097.19
2022-10-30T21:58:07.192Z,98095.56
2022-10-30T22:00:33.795Z,98097.19
2022-10-30T22:03:00.432Z,98107.78
2022-10-30T22:05:27.014Z,98107.84
2022-10-30T22:07:53.915Z,98106.19
2022-10-30T22:10:20.577Z,98100.84
2022-10-30T22:12:47.220Z,98101.03
2022-10-30T22:15:13.826Z,98110.63
2022-10-30T22:17:40.407Z,98105.41
2022-10-30T22:20:07.900Z,98110.75
2022-10-30T22:22:34.488Z,98111.81
2022-10-30T22:25:01.066Z,98110.09
2022-10-30T22:27:27.650Z,98112.75
2022-10-30T22:29:54.304Z,98114.66
2022-10-30T22:32:23.008Z,98113.94
2022-10-30T22:34:49.716Z,98118.38
2022-10-30T22:37:16.547Z,98114.91
2022-10-30T22:39:43.222Z,98119.38
2022-10-30T22:42:09.832Z,98120.69
2022-10-30T22:44:36.431Z,98112.88
2022-10-30T22:47:03.087Z,98108.06
2022-10-30T22:49:29.716Z,98110.66
2022-10-30T22:51:56.363Z,98109.94
2022-10-30T22:54:23.009Z,98112.31
2022-10-30T22:56:49.784Z,98105.13
2022-10-30T22:59:16.368Z,98104.06
2022-10-30T23:01:43.441Z,98104.97
2022-10-30T23:04:11.982Z,98109.53
2022-10-30T23:06:38.669Z,98099.63
2022-10-30T23:09:10.252Z,98095.13
2022-10-30T23:11:37.205Z,98103.03
2022-10-30T23:14:03.855Z,98102.22
2022-10-30T23:16:30.634Z,98105.47
2022-10-30T23:18:59.432Z,98104.56
2022-10-30T23:21:28.592Z,98103.88
2022-10-30T23:23:56.163Z,98111.31
2022-10-30T23:26:29.334Z,98115.03
2022-10-30T23:28:56.997Z,98103.59
2022-10-30T23:31:38.982Z,98114.91
2022-10-30T23:34:12.097Z,98104.53
2022-10-30T23:36:39.343Z,98105.31
2022-10-30T23:39:11.417Z,98102.53
2022-10-30T23:41:38.091Z,98102.66
2022-10-30T23:44:07.265Z,98101.88
2022-10-30T23:46:35.535Z,98103.63
2022-10-30T23:49:03.229Z,98105.50
2022-10-30T23:51:30.053Z,98101.19
2022-10-30T23:54:08.995Z,98109.72
2022-10-30T23:56:35.572Z,98107.00
2022-10-30T23:59:02.146Z,98107.28
